Time;durP1;ratioP1;P1;durP2;ratioP2;P2;SDS_P1;SDS_P2;PMS_P1;PMS_P2;Temp;Humidity;BMP_temperature;BMP_pressure;BME280_temperature;BME280_humidity;BME280_pressure;Samples;Min_cycle;Max_cycle;Signal;HPM_P1;HPM_P2
2023/04/23 00:00:31;;;;;;;;;;;8.50;99.90;;;;;;5074334;28;20304;-72
2023/04/23 00:02:59;;;;;;;;;;;8.40;99.90;;;;;;5057295;28;19925;-71
2023/04/23 00:05:26;;;;;;;;;;;8.40;99.90;;;;;;5076538;28;19969;-71
2023/04/23 00:07:52;;;;;;;;;;;8.30;99.90;;;;;;5076078;28;19929;-71
2023/04/23 00:10:18;;;;;;;;;;;8.40;99.90;;;;;;5056830;28;20062;-71
2023/04/23 00:12:44;;;;;;;;;;;8.30;99.90;;;;;;5072331;28;20007;-71
2023/04/23 00:15:10;;;;;;;;;;;8.30;99.90;;;;;;5071383;28;19931;-71
2023/04/23 00:17:36;;;;;;;;;;;8.30;99.90;;;;;;5072810;28;19929;-71
2023/04/23 00:20:01;;;;;;;;;;;8.30;99.90;;;;;;5073701;28;20400;-71
2023/04/23 00:22:27;;;;;;;;;;;8.20;99.90;;;;;;5073792;28;19932;-71
2023/04/23 00:24:52;;;;;;;;;;;8.40;99.90;;;;;;5055272;28;19924;-75
2023/04/23 00:27:19;;;;;;;;;;;8.40;99.90;;;;;;5053450;28;19925;-71
2023/04/23 00:29:45;;;;;;;;;;;8.30;99.90;;;;;;5067278;28;19931;-71
2023/04/23 00:32:11;;;;;;;;;;;8.30;99.90;;;;;;5068635;28;19924;-71
2023/04/23 00:34:37;;;;;;;;;;;8.40;99.90;;;;;;5054846;28;20301;-71
2023/04/23 00:37:05;;;;;;;;;;;8.30;99.90;;;;;;5071919;28;19938;-71
2023/04/23 00:39:31;;;;;;;;;;;8.30;99.90;;;;;;5075018;28;19925;-71
2023/04/23 00:41:59;;;;;;;;;;;8.20;99.90;;;;;;5072559;28;19925;-71
2023/04/23 00:44:24;;;;;;;;;;;8.20;99.90;;;;;;5053156;28;19924;-70
2023/04/23 00:46:51;;;;;;;;;;;8.20;99.90;;;;;;5072102;28;19924;-71
2023/04/23 00:49:17;;;;;;;;;;;8.20;99.90;;;;;;5055079;28;19924;-71
2023/04/23 00:51:43;;;;;;;;;;;8.10;99.90;;;;;;5063730;28;20237;-72
2023/04/23 00:54:08;;;;;;;;;;;8.10;99.90;;;;;;5050808;28;20417;-72
2023/04/23 00:56:34;;;;;;;;;;;8.10;99.90;;;;;;5069324;28;19971;-71
2023/04/23 00:59:02;;;;;;;;;;;8.10;99.90;;;;;;5070912;28;20325;-71
2023/04/23 01:01:29;;;;;;;;;;;8.10;99.90;;;;;;5069232;28;20074;-71
2023/04/23 01:03:55;;;;;;;;;;;8.10;99.90;;;;;;5070248;28;19924;-72
2023/04/23 01:06:23;;;;;;;;;;;8.00;99.90;;;;;;5071337;28;19979;-71
2023/04/23 01:08:49;;;;;;;;;;;8.10;99.90;;;;;;5055248;28;19931;-71
2023/04/23 01:11:15;;;;;;;;;;;8.00;99.90;;;;;;5054509;28;20359;-71
2023/04/23 01:13:41;;;;;;;;;;;8.00;99.90;;;;;;5070771;28;19975;-71
2023/04/23 01:16:07;;;;;;;;;;;7.90;99.90;;;;;;5071697;28;20404;-71
2023/04/23 01:18:33;;;;;;;;;;;7.90;99.90;;;;;;5066564;28;19947;-71
2023/04/23 01:20:58;;;;;;;;;;;7.90;99.90;;;;;;5062152;28;19925;-70
2023/04/23 01:23:25;;;;;;;;;;;7.90;99.90;;;;;;5072355;28;19924;-71
2023/04/23 01:25:52;;;;;;;;;;;8.00;99.90;;;;;;5054889;28;19977;-71
2023/04/23 01:28:17;;;;;;;;;;;7.80;99.90;;;;;;5067136;28;19929;-71
2023/04/23 01:30:44;;;;;;;;;;;7.80;99.90;;;;;;5064815;28;19940;-71
2023/04/23 01:33:10;;;;;;;;;;;7.70;99.90;;;;;;5060248;28;19929;-71
2023/04/23 01:35:35;;;;;;;;;;;7.70;99.90;;;;;;5069147;28;20011;-71
2023/04/23 01:38:06;;;;;;;;;;;7.70;99.90;;;;;;5072494;28;20367;-71
2023/04/23 01:40:32;;;;;;;;;;;7.70;99.90;;;;;;5055010;28;19924;-71
2023/04/23 01:42:57;;;;;;;;;;;7.70;99.90;;;;;;5060725;28;19932;-71
2023/04/23 01:45:23;;;;;;;;;;;7.70;99.90;;;;;;5064438;28;19925;-71
2023/04/23 01:47:49;;;;;;;;;;;7.70;99.90;;;;;;5053396;28;19924;-72
2023/04/23 01:50:14;;;;;;;;;;;7.70;99.90;;;;;;5052677;28;19986;-71
2023/04/23 01:52:40;;;;;;;;;;;7.60;99.90;;;;;;5064082;28;19928;-71
2023/04/23 01:55:06;;;;;;;;;;;7.60;99.90;;;;;;5070640;28;20293;-74
2023/04/23 01:57:32;;;;;;;;;;;7.70;99.90;;;;;;5061781;28;19924;-72
2023/04/23 02:00:02;;;;;;;;;;;7.60;99.90;;;;;;5069928;28;19925;-71
2023/04/23 02:02:28;;;;;;;;;;;7.60;99.90;;;;;;5071124;28;19925;-71
2023/04/23 02:04:55;;;;;;;;;;;7.60;99.90;;;;;;5051282;28;19931;-71
2023/04/23 02:07:20;;;;;;;;;;;7.60;99.90;;;;;;5069434;28;20293;-71
2023/04/23 02:09:46;;;;;;;;;;;7.60;99.90;;;;;;5050424;28;19932;-71
2023/04/23 02:12:11;;;;;;;;;;;7.60;99.90;;;;;;5069741;28;19932;-71
2023/04/23 02:14:37;;;;;;;;;;;7.50;99.90;;;;;;5067779;28;19931;-71
2023/04/23 02:17:02;;;;;;;;;;;7.50;99.90;;;;;;5072515;28;20010;-72
2023/04/23 02:19:30;;;;;;;;;;;7.60;99.90;;;;;;5066555;28;20336;-71
2023/04/23 02:21:56;;;;;;;;;;;7.40;99.90;;;;;;5072260;28;20420;-72
2023/04/23 02:24:21;;;;;;;;;;;7.40;99.90;;;;;;5054936;28;19924;-72
2023/04/23 02:26:47;;;;;;;;;;;7.40;99.90;;;;;;5065730;28;19924;-70
2023/04/23 02:29:13;;;;;;;;;;;7.40;99.90;;;;;;5054462;28;19987;-71
2023/04/23 02:31:42;;;;;;;;;;;7.40;99.90;;;;;;5066094;28;20378;-72
2023/04/23 02:34:07;;;;;;;;;;;7.30;99.90;;;;;;5072555;28;20325;-71
2023/04/23 02:36:33;;;;;;;;;;;7.30;99.90;;;;;;5071769;28;19979;-71
2023/04/23 02:38:58;;;;;;;;;;;7.30;99.90;;;;;;5052172;28;19986;-72
2023/04/23 02:41:24;;;;;;;;;;;7.30;99.90;;;;;;5070468;28;19931;-70
2023/04/23 02:43:49;;;;;;;;;;;7.30;99.90;;;;;;5070396;28;19928;-71
2023/04/23 02:46:15;;;;;;;;;;;7.30;99.90;;;;;;5071026;28;19975;-71
2023/04/23 02:48:40;;;;;;;;;;;7.30;99.90;;;;;;5071963;28;19925;-71
2023/04/23 02:51:07;;;;;;;;;;;7.30;99.90;;;;;;5071949;28;20355;-71
2023/04/23 02:53:36;;;;;;;;;;;7.30;99.90;;;;;;5072168;28;19924;-72
2023/04/23 02:56:02;;;;;;;;;;;7.20;99.90;;;;;;5055608;28;19940;-72
2023/04/23 02:58:27;;;;;;;;;;;7.20;99.90;;;;;;5075983;28;19933;-72
2023/04/23 03:00:53;;;;;;;;;;;7.20;99.90;;;;;;5076749;28;19978;-72
2023/04/23 03:03:18;;;;;;;;;;;7.20;99.90;;;;;;5076147;28;20386;-72
2023/04/23 03:05:44;;;;;;;;;;;7.20;99.90;;;;;;5075411;28;20003;-72
2023/04/23 03:08:10;;;;;;;;;;;7.20;99.90;;;;;;5049861;28;19947;-71
2023/04/23 03:10:35;;;;;;;;;;;7.10;99.90;;;;;;5073146;28;19924;-71
2023/04/23 03:13:01;;;;;;;;;;;7.10;99.90;;;;;;5068980;28;19978;-71
2023/04/23 03:15:27;;;;;;;;;;;7.20;99.90;;;;;;5075261;28;19924;-71
2023/04/23 03:17:52;;;;;;;;;;;7.10;99.90;;;;;;5056144;28;19924;-71
2023/04/23 03:20:18;;;;;;;;;;;7.10;99.90;;;;;;5076653;28;20463;-70
2023/04/23 03:22:44;;;;;;;;;;;7.10;99.90;;;;;;5044096;28;19924;-71
2023/04/23 03:25:10;;;;;;;;;;;7.10;99.90;;;;;;5074794;28;19997;-71
2023/04/23 03:27:39;;;;;;;;;;;7.10;99.90;;;;;;5057373;28;20397;-71
2023/04/23 03:30:06;;;;;;;;;;;7.10;99.90;;;;;;5075862;28;20011;-71
2023/04/23 03:32:32;;;;;;;;;;;7.00;99.90;;;;;;5076299;28;19931;-75
2023/04/23 03:34:58;;;;;;;;;;;7.00;99.90;;;;;;5076304;28;19924;-72
2023/04/23 03:37:23;;;;;;;;;;;7.00;99.90;;;;;;5074418;28;20366;-72
2023/04/23 03:39:50;;;;;;;;;;;7.00;99.90;;;;;;5076145;28;20370;-72
2023/04/23 03:42:15;;;;;;;;;;;7.00;99.90;;;;;;5073322;28;19951;-71
2023/04/23 03:44:41;;;;;;;;;;;7.10;99.90;;;;;;5072612;28;19929;-72
2023/04/23 03:47:06;;;;;;;;;;;7.00;99.90;;;;;;5075729;28;19924;-71
2023/04/23 03:49:32;;;;;;;;;;;7.00;99.90;;;;;;5077051;28;19931;-71
2023/04/23 03:51:58;;;;;;;;;;;7.00;99.90;;;;;;5072775;28;20373;-71
2023/04/23 03:54:24;;;;;;;;;;;7.00;99.90;;;;;;5073444;28;19925;-71
2023/04/23 03:56:50;;;;;;;;;;;7.00;99.90;;;;;;5072022;28;19969;-72
2023/04/23 03:59:15;;;;;;;;;;;7.00;99.90;;;;;;5074455;28;20011;-71
2023/04/23 04:01:42;;;;;;;;;;;7.00;99.90;;;;;;5071497;28;19932;-71
2023/04/23 04:04:08;;;;;;;;;;;7.00;99.90;;;;;;5075159;28;19924;-72
2023/04/23 04:06:34;;;;;;;;;;;7.00;99.90;;;;;;5073439;28;20011;-72
2023/04/23 04:09:00;;;;;;;;;;;7.20;99.90;;;;;;5074354;28;19925;-71
2023/04/23 04:11:25;;;;;;;;;;;7.10;99.90;;;;;;5071875;28;19947;-71
2023/04/23 04:13:51;;;;;;;;;;;7.10;99.90;;;;;;5054835;28;20020;-71
2023/04/23 04:16:16;;;;;;;;;;;7.10;99.90;;;;;;5054195;28;19978;-72
2023/04/23 04:18:42;;;;;;;;;;;7.20;99.90;;;;;;5071154;28;19967;-72
2023/04/23 04:21:08;;;;;;;;;;;7.20;99.90;;;;;;5070675;28;19924;-71
2023/04/23 04:23:33;;;;;;;;;;;7.20;99.90;;;;;;5066325;28;19924;-71
2023/04/23 04:25:59;;;;;;;;;;;7.20;99.90;;;;;;5075300;28;19939;-71
2023/04/23 04:28:25;;;;;;;;;;;7.20;99.90;;;;;;5082987;28;19925;-71
2023/04/23 04:30:56;;;;;;;;;;;7.40;99.90;;;;;;5073319;28;19924;-71
2023/04/23 04:33:24;;;;;;;;;;;7.30;99.90;;;;;;5066509;28;19951;-74
2023/04/23 04:35:50;;;;;;;;;;;7.40;99.90;;;;;;5071212;28;19983;-71
2023/04/23 04:38:15;;;;;;;;;;;7.30;99.90;;;;;;5073877;28;19971;-71
2023/04/23 04:40:41;;;;;;;;;;;7.40;99.90;;;;;;5074000;28;19954;-71
2023/04/23 04:43:06;;;;;;;;;;;7.40;99.90;;;;;;5074262;28;19924;-72
2023/04/23 04:45:32;;;;;;;;;;;7.40;99.90;;;;;;5072719;28;20012;-71
2023/04/23 04:47:57;;;;;;;;;;;7.40;99.90;;;;;;5073508;28;19935;-71
2023/04/23 04:50:23;;;;;;;;;;;7.40;99.90;;;;;;5073312;28;19970;-71
2023/04/23 04:52:49;;;;;;;;;;;7.40;99.90;;;;;;5073133;28;19982;-70
2023/04/23 04:55:14;;;;;;;;;;;7.40;99.90;;;;;;5062450;28;19924;-71
2023/04/23 04:57:40;;;;;;;;;;;7.40;99.90;;;;;;5072783;28;19924;-70
2023/04/23 05:00:23;;;;;;;;;;;7.40;99.90;;;;;;5069152;28;20042;-71
2023/04/23 05:02:49;;;;;;;;;;;7.50;99.90;;;;;;5072085;28;20397;-71
2023/04/23 05:05:14;;;;;;;;;;;7.40;99.90;;;;;;5071858;28;20274;-70
2023/04/23 05:07:40;;;;;;;;;;;7.50;99.90;;;;;;5073019;28;19928;-70
2023/04/23 05:10:06;;;;;;;;;;;7.50;99.90;;;;;;5069118;28;20294;-70
2023/04/23 05:12:31;;;;;;;;;;;7.50;99.90;;;;;;5070014;28;20374;-71
2023/04/23 05:14:57;;;;;;;;;;;7.50;99.90;;;;;;5073095;28;20285;-70
2023/04/23 05:17:22;;;;;;;;;;;7.50;99.90;;;;;;5072620;28;19924;-70
2023/04/23 05:19:48;;;;;;;;;;;7.50;99.90;;;;;;5070967;28;19928;-71
2023/04/23 05:22:14;;;;;;;;;;;7.60;99.90;;;;;;5067553;28;19931;-70
2023/04/23 05:24:39;;;;;;;;;;;7.60;99.90;;;;;;5068065;28;19925;-70
2023/04/23 05:27:05;;;;;;;;;;;7.60;99.90;;;;;;5072808;28;19971;-71
2023/04/23 05:29:30;;;;;;;;;;;7.60;99.90;;;;;;5073734;28;19928;-70
2023/04/23 05:31:56;;;;;;;;;;;7.60;99.90;;;;;;5069808;28;19971;-71
2023/04/23 05:34:21;;;;;;;;;;;7.60;99.90;;;;;;5073041;28;20385;-70
2023/04/23 05:36:47;;;;;;;;;;;7.60;99.90;;;;;;5051548;28;19999;-71
2023/04/23 05:39:12;;;;;;;;;;;7.60;99.90;;;;;;5066565;28;19968;-70
2023/04/23 05:41:38;;;;;;;;;;;8.40;99.90;;;;;;5055039;28;19972;-70
2023/04/23 05:44:03;;;;;;;;;;;7.70;99.90;;;;;;5055016;28;19975;-71
2023/04/23 05:46:29;;;;;;;;;;;7.60;99.90;;;;;;5071596;28;20293;-71
2023/04/23 05:48:55;;;;;;;;;;;7.70;99.90;;;;;;5073370;28;19924;-70
2023/04/23 05:51:21;;;;;;;;;;;7.60;99.90;;;;;;5054079;28;19925;-71
2023/04/23 05:53:46;;;;;;;;;;;7.60;99.90;;;;;;5072876;28;19960;-71
2023/04/23 05:56:11;;;;;;;;;;;7.70;99.90;;;;;;5072736;28;20385;-71
2023/04/23 05:58:37;;;;;;;;;;;7.70;99.90;;;;;;5073182;28;19931;-71
2023/04/23 06:01:03;;;;;;;;;;;7.70;99.90;;;;;;5062611;28;19924;-71
2023/04/23 06:03:28;;;;;;;;;;;7.70;99.90;;;;;;5071282;28;19977;-71
2023/04/23 06:05:54;;;;;;;;;;;7.70;99.90;;;;;;5069061;28;19950;-70
2023/04/23 06:08:19;;;;;;;;;;;7.80;99.90;;;;;;5053123;28;20015;-71
2023/04/23 06:10:45;;;;;;;;;;;7.90;99.90;;;;;;5069101;28;19924;-70
2023/04/23 06:13:11;;;;;;;;;;;7.90;99.90;;;;;;5055106;28;19932;-70
2023/04/23 06:15:37;;;;;;;;;;;8.00;99.90;;;;;;5070535;28;19968;-71
2023/04/23 06:18:02;;;;;;;;;;;8.10;99.90;;;;;;5071885;28;20898;-70
2023/04/23 06:20:28;;;;;;;;;;;8.10;99.90;;;;;;5072115;28;19920;-71
2023/04/23 06:22:54;;;;;;;;;;;8.20;99.90;;;;;;5069322;28;19978;-71
2023/04/23 06:25:19;;;;;;;;;;;8.30;99.90;;;;;;5071377;28;19946;-70
2023/04/23 06:27:45;;;;;;;;;;;8.30;99.90;;;;;;5078402;28;19928;-70
2023/04/23 06:30:11;;;;;;;;;;;8.40;99.90;;;;;;5077511;28;20283;-70
2023/04/23 06:32:36;;;;;;;;;;;8.40;99.90;;;;;;5072617;28;19925;-71
2023/04/23 06:35:03;;;;;;;;;;;8.60;99.90;;;;;;5071939;28;19924;-71
2023/04/23 06:37:30;;;;;;;;;;;8.60;99.90;;;;;;5069850;28;19925;-70
2023/04/23 06:39:56;;;;;;;;;;;8.80;99.90;;;;;;5070928;28;19924;-70
2023/04/23 06:42:22;;;;;;;;;;;9.00;99.90;;;;;;5071146;28;20294;-71
2023/04/23 06:44:47;;;;;;;;;;;9.10;99.90;;;;;;5071835;28;19924;-70
2023/04/23 06:47:13;;;;;;;;;;;9.10;99.90;;;;;;5071317;28;19929;-71
2023/04/23 06:49:39;;;;;;;;;;;9.20;99.90;;;;;;5072433;28;19932;-71
2023/04/23 06:52:04;;;;;;;;;;;9.40;99.90;;;;;;5071350;28;19931;-72
2023/04/23 06:54:30;;;;;;;;;;;9.60;99.90;;;;;;5070299;28;19928;-69
2023/04/23 06:56:56;;;;;;;;;;;9.80;99.90;;;;;;5070721;28;19924;-72
2023/04/23 06:59:21;;;;;;;;;;;9.80;99.90;;;;;;5072354;28;19924;-70
2023/04/23 07:01:47;;;;;;;;;;;9.80;99.90;;;;;;5071783;28;19954;-71
2023/04/23 07:04:13;;;;;;;;;;;9.90;99.90;;;;;;5066797;28;20023;-71
2023/04/23 07:06:38;;;;;;;;;;;10.10;99.90;;;;;;5064811;28;19932;-71
2023/04/23 07:09:05;;;;;;;;;;;10.30;99.90;;;;;;5050120;28;19932;-71
2023/04/23 07:11:33;;;;;;;;;;;10.60;99.90;;;;;;5062510;28;19925;-71
2023/04/23 07:13:59;;;;;;;;;;;10.70;99.90;;;;;;5072318;28;20004;-71
2023/04/23 07:16:28;;;;;;;;;;;11.00;99.90;;;;;;5070647;28;19944;-71
2023/04/23 07:18:54;;;;;;;;;;;11.10;99.90;;;;;;5071631;28;19924;-71
2023/04/23 07:21:19;;;;;;;;;;;11.30;99.90;;;;;;5062211;28;19981;-71
2023/04/23 07:23:45;;;;;;;;;;;11.40;99.90;;;;;;5073269;28;20313;-71
2023/04/23 07:26:11;;;;;;;;;;;11.60;99.90;;;;;;5069042;28;19925;-71
2023/04/23 07:28:36;;;;;;;;;;;11.80;99.90;;;;;;5056079;28;19928;-71
2023/04/23 07:31:02;;;;;;;;;;;11.90;99.90;;;;;;5072454;28;19932;-71
2023/04/23 07:33:28;;;;;;;;;;;12.10;99.90;;;;;;5072217;28;19971;-70
2023/04/23 07:35:53;;;;;;;;;;;12.20;99.90;;;;;;5069715;28;19925;-71
2023/04/23 07:38:19;;;;;;;;;;;12.30;99.90;;;;;;5070280;28;19924;-71
2023/04/23 07:40:44;;;;;;;;;;;12.30;99.90;;;;;;5068653;28;20066;-71
2023/04/23 07:43:10;;;;;;;;;;;12.40;99.90;;;;;;5056605;28;19968;-71
2023/04/23 07:45:36;;;;;;;;;;;12.50;99.90;;;;;;5074397;28;19929;-70
2023/04/23 07:48:02;;;;;;;;;;;12.70;99.90;;;;;;5057139;28;19925;-71
2023/04/23 07:50:28;;;;;;;;;;;12.80;99.90;;;;;;5075725;28;19931;-72
2023/04/23 07:52:54;;;;;;;;;;;12.70;99.90;;;;;;5067702;28;19932;-71
2023/04/23 07:55:20;;;;;;;;;;;12.80;99.90;;;;;;5056618;28;19924;-72
2023/04/23 07:57:46;;;;;;;;;;;12.90;99.90;;;;;;5075744;28;20370;-70
2023/04/23 08:00:12;;;;;;;;;;;13.00;99.90;;;;;;5069446;28;19971;-71
2023/04/23 08:02:37;;;;;;;;;;;13.10;99.90;;;;;;5067568;28;19929;-71
2023/04/23 08:05:03;;;;;;;;;;;13.00;99.90;;;;;;5073543;28;20389;-72
2023/04/23 08:07:29;;;;;;;;;;;13.20;99.90;;;;;;5069768;28;19985;-70
2023/04/23 08:09:54;;;;;;;;;;;13.40;99.90;;;;;;5072181;28;19924;-71
2023/04/23 08:12:20;;;;;;;;;;;13.50;99.90;;;;;;5074293;28;20015;-72
2023/04/23 08:14:46;;;;;;;;;;;13.50;99.90;;;;;;5055688;28;19977;-71
2023/04/23 08:17:12;;;;;;;;;;;13.50;99.90;;;;;;5071847;28;19924;-71
2023/04/23 08:19:37;;;;;;;;;;;13.70;99.90;;;;;;5069003;28;19929;-70
2023/04/23 08:22:03;;;;;;;;;;;13.90;99.90;;;;;;5069545;28;20306;-71
2023/04/23 08:24:29;;;;;;;;;;;14.00;99.90;;;;;;5041463;28;19963;-71
2023/04/23 08:26:54;;;;;;;;;;;14.20;99.90;;;;;;5062703;28;19925;-71
2023/04/23 08:29:20;;;;;;;;;;;14.40;99.90;;;;;;5067019;28;19928;-72
2023/04/23 08:31:46;;;;;;;;;;;14.60;99.90;;;;;;5070595;28;19932;-72
2023/04/23 08:34:13;;;;;;;;;;;14.80;99.90;;;;;;5072272;28;20385;-72
2023/04/23 08:36:40;;;;;;;;;;;15.00;99.90;;;;;;5071005;28;19928;-71
2023/04/23 08:39:07;;;;;;;;;;;15.10;99.90;;;;;;5072437;28;19932;-71
2023/04/23 08:41:37;;;;;;;;;;;15.20;99.90;;;;;;5071202;28;19924;-71
2023/04/23 08:44:12;;;;;;;;;;;15.30;99.90;;;;;;5071593;28;19932;-71
2023/04/23 08:46:41;;;;;;;;;;;15.40;99.90;;;;;;5065755;28;20011;-72
2023/04/23 08:49:09;;;;;;;;;;;15.50;99.90;;;;;;5074233;28;19924;-72
2023/04/23 08:51:37;;;;;;;;;;;15.60;99.90;;;;;;5071515;28;20007;-72
2023/04/23 08:54:07;;;;;;;;;;;15.80;99.90;;;;;;5071626;28;19931;-71
2023/04/23 08:56:33;;;;;;;;;;;15.90;99.90;;;;;;5073826;28;20348;-71
2023/04/23 08:59:02;;;;;;;;;;;16.00;99.90;;;;;;5072357;28;19924;-71
2023/04/23 09:01:28;;;;;;;;;;;16.00;99.90;;;;;;5073577;28;19979;-71
2023/04/23 09:03:54;;;;;;;;;;;16.20;99.90;;;;;;5069408;28;19946;-71
2023/04/23 09:06:21;;;;;;;;;;;16.20;99.90;;;;;;5054274;28;20370;-70
2023/04/23 09:08:46;;;;;;;;;;;16.40;99.90;;;;;;5071704;28;20015;-71
2023/04/23 09:11:13;;;;;;;;;;;16.40;99.90;;;;;;5066493;28;20035;-72
2023/04/23 09:13:40;;;;;;;;;;;16.50;99.90;;;;;;5070563;28;19931;-71
2023/04/23 09:16:05;;;;;;;;;;;16.70;99.90;;;;;;5071853;28;20340;-70
2023/04/23 09:18:31;;;;;;;;;;;16.90;99.90;;;;;;5073416;28;19924;-71
2023/04/23 09:20:57;;;;;;;;;;;17.10;99.90;;;;;;5071243;28;19932;-71
2023/04/23 09:23:22;;;;;;;;;;;17.10;99.90;;;;;;5072437;28;19930;-71
2023/04/23 09:25:48;;;;;;;;;;;17.20;99.90;;;;;;5072983;28;19925;-71
2023/04/23 09:28:14;;;;;;;;;;;17.40;99.90;;;;;;5071104;28;19977;-70
2023/04/23 09:30:43;;;;;;;;;;;17.50;99.90;;;;;;5072903;28;19924;-70
2023/04/23 09:33:12;;;;;;;;;;;17.50;99.90;;;;;;5063509;28;19929;-71
2023/04/23 09:35:38;;;;;;;;;;;17.70;99.90;;;;;;5067910;28;20019;-71
2023/04/23 09:38:06;;;;;;;;;;;17.70;99.90;;;;;;5065218;28;20023;-71
2023/04/23 09:40:33;;;;;;;;;;;17.70;99.90;;;;;;5071810;28;19986;-72
2023/04/23 09:43:02;;;;;;;;;;;17.80;99.90;;;;;;5054507;28;19976;-71
2023/04/23 09:45:28;;;;;;;;;;;18.00;99.90;;;;;;5072397;28;20331;-71
2023/04/23 09:47:55;;;;;;;;;;;18.10;99.90;;;;;;5072734;28;20297;-71
2023/04/23 09:50:32;;;;;;;;;;;17.80;99.90;;;;;;5072765;28;19964;-72
2023/04/23 09:52:58;;;;;;;;;;;17.70;99.90;;;;;;5069724;28;20550;-71
2023/04/23 09:55:34;;;;;;;;;;;17.60;99.90;;;;;;5070222;28;19925;-72
2023/04/23 09:58:00;;;;;;;;;;;17.40;99.90;;;;;;5069702;28;19925;-72
2023/04/23 10:00:31;;;;;;;;;;;17.30;99.90;;;;;;5040087;28;19935;-71
2023/04/23 10:02:58;;;;;;;;;;;17.30;99.90;;;;;;5071100;28;20452;-73
2023/04/23 10:05:23;;;;;;;;;;;17.10;99.90;;;;;;5071257;28;20027;-72
2023/04/23 10:07:49;;;;;;;;;;;16.90;99.90;;;;;;5050020;28;20039;-74
2023/04/23 10:10:16;;;;;;;;;;;16.90;99.90;;;;;;5072210;28;19924;-72
2023/04/23 10:12:42;;;;;;;;;;;16.80;99.90;;;;;;5072557;28;20336;-71
2023/04/23 10:15:08;;;;;;;;;;;16.80;99.90;;;;;;5073322;28;19931;-72
2023/04/23 10:17:37;;;;;;;;;;;16.80;99.90;;;;;;5069224;28;20402;-72
2023/04/23 10:20:03;;;;;;;;;;;16.60;99.90;;;;;;5069128;28;19940;-70
2023/04/23 10:22:29;;;;;;;;;;;16.50;99.90;;;;;;5028324;28;20283;-71
2023/04/23 10:24:57;;;;;;;;;;;16.50;99.90;;;;;;5068474;28;20098;-71
2023/04/23 10:27:27;;;;;;;;;;;16.60;99.90;;;;;;5064380;28;20409;-71
2023/04/23 10:29:53;;;;;;;;;;;16.80;99.90;;;;;;5072093;28;19932;-71
2023/04/23 10:32:19;;;;;;;;;;;17.30;99.90;;;;;;5071996;28;19929;-71
2023/04/23 10:34:45;;;;;;;;;;;17.90;99.90;;;;;;5070996;28;19950;-73
2023/04/23 10:37:11;;;;;;;;;;;18.60;99.90;;;;;;5070324;28;19928;-71
2023/04/23 10:39:37;;;;;;;;;;;19.20;99.90;;;;;;5067403;28;19928;-76
2023/04/23 10:42:03;;;;;;;;;;;19.70;99.90;;;;;;5067949;28;20184;-72
2023/04/23 10:44:38;;;;;;;;;;;19.70;99.90;;;;;;5064480;28;19925;-72
2023/04/23 10:47:05;;;;;;;;;;;19.40;99.90;;;;;;5065140;28;19928;-72
2023/04/23 10:49:33;;;;;;;;;;;19.60;99.90;;;;;;5068230;28;20348;-72
2023/04/23 10:52:00;;;;;;;;;;;20.00;99.90;;;;;;5068028;28;19932;-72
2023/04/23 10:54:33;;;;;;;;;;;20.30;99.90;;;;;;5070427;28;19925;-70
2023/04/23 10:57:00;;;;;;;;;;;20.30;99.90;;;;;;5067947;28;19940;-70
2023/04/23 10:59:28;;;;;;;;;;;20.00;99.90;;;;;;5050096;28;19931;-71
2023/04/23 11:01:55;;;;;;;;;;;19.70;99.90;;;;;;5063751;28;19954;-71
2023/04/23 11:04:24;;;;;;;;;;;19.80;99.90;;;;;;5065541;28;19931;-70
2023/04/23 11:06:51;;;;;;;;;;;20.00;99.90;;;;;;5069539;28;20370;-72
2023/04/23 11:09:27;;;;;;;;;;;19.70;99.90;;;;;;5058607;28;19943;-71
2023/04/23 11:11:53;;;;;;;;;;;19.40;99.90;;;;;;5066821;28;20595;-72
2023/04/23 11:14:19;;;;;;;;;;;19.10;99.90;;;;;;5067837;28;19932;-71
2023/04/23 11:16:47;;;;;;;;;;;18.80;99.90;;;;;;5070781;28;19949;-71
2023/04/23 11:19:14;;;;;;;;;;;18.80;99.90;;;;;;5073776;28;19950;-71
2023/04/23 11:21:58;;;;;;;;;;;19.20;99.90;;;;;;5054615;28;19978;-70
2023/04/23 11:24:26;;;;;;;;;;;19.40;99.90;;;;;;5063843;28;20294;-71
2023/04/23 11:26:54;;;;;;;;;;;19.70;99.90;;;;;;5043958;28;19925;-71
2023/04/23 11:29:22;;;;;;;;;;;19.90;99.90;;;;;;5074387;28;19925;-71
2023/04/23 11:31:48;;;;;;;;;;;20.30;99.90;;;;;;5074506;28;19924;-70
2023/04/23 11:34:15;;;;;;;;;;;20.80;99.90;;;;;;5073038;28;19924;-72
2023/04/23 11:36:41;;;;;;;;;;;21.00;99.90;;;;;;5071196;28;19978;-71
2023/04/23 11:39:08;;;;;;;;;;;21.50;99.90;;;;;;5071962;28;20343;-71
2023/04/23 11:41:34;;;;;;;;;;;22.00;99.90;;;;;;5070710;28;19925;-72
2023/04/23 11:43:59;;;;;;;;;;;22.30;98.80;;;;;;5074423;28;19975;-72
2023/04/23 11:46:25;;;;;;;;;;;22.70;98.80;;;;;;5071732;28;20014;-72
2023/04/23 11:48:51;;;;;;;;;;;22.80;95.60;;;;;;5073161;28;19928;-70
2023/04/23 11:51:16;;;;;;;;;;;22.90;96.00;;;;;;5071632;28;19935;-71
2023/04/23 11:53:48;;;;;;;;;;;23.10;95.20;;;;;;5071950;28;19948;-70
2023/04/23 11:56:16;;;;;;;;;;;23.10;92.80;;;;;;5075440;28;20615;-72
2023/04/23 11:58:41;;;;;;;;;;;23.10;92.70;;;;;;5076096;28;20274;-70
2023/04/23 12:01:10;;;;;;;;;;;23.20;93.90;;;;;;5075725;28;19928;-72
2023/04/23 12:03:35;;;;;;;;;;;23.20;92.40;;;;;;5071505;28;19929;-71
2023/04/23 12:06:01;;;;;;;;;;;23.10;91.90;;;;;;5070417;28;20353;-71
2023/04/23 12:08:30;;;;;;;;;;;23.00;90.20;;;;;;5074416;28;20266;-72
2023/04/23 12:10:59;;;;;;;;;;;22.70;91.00;;;;;;5074568;28;20118;-73
2023/04/23 12:13:28;;;;;;;;;;;22.40;91.40;;;;;;5074856;28;19924;-71
2023/04/23 12:15:55;;;;;;;;;;;22.30;91.70;;;;;;5052532;28;19931;-71
2023/04/23 12:18:27;;;;;;;;;;;22.60;92.70;;;;;;5072432;28;20421;-71
2023/04/23 12:20:52;;;;;;;;;;;22.80;90.90;;;;;;5066461;28;19928;-71
2023/04/23 12:23:18;;;;;;;;;;;22.80;90.30;;;;;;5051736;28;20107;-71
2023/04/23 12:25:43;;;;;;;;;;;22.90;90.40;;;;;;5073067;28;20362;-71
2023/04/23 12:28:09;;;;;;;;;;;22.60;89.60;;;;;;5065543;28;19925;-71
2023/04/23 12:30:41;;;;;;;;;;;22.20;90.80;;;;;;5074668;28;19931;-71
2023/04/23 12:33:09;;;;;;;;;;;21.70;91.50;;;;;;5056874;28;19932;-71
2023/04/23 12:35:38;;;;;;;;;;;21.30;91.20;;;;;;5071985;28;20374;-72
2023/04/23 12:38:04;;;;;;;;;;;21.00;92.30;;;;;;5066177;28;20015;-72
2023/04/23 12:40:30;;;;;;;;;;;21.00;92.10;;;;;;5074789;28;20000;-72
2023/04/23 12:42:55;;;;;;;;;;;20.80;91.60;;;;;;5073545;28;19924;-71
2023/04/23 12:45:21;;;;;;;;;;;20.60;91.30;;;;;;5074830;28;19924;-71
2023/04/23 12:47:46;;;;;;;;;;;20.30;91.60;;;;;;5072607;28;19951;-71
2023/04/23 12:50:12;;;;;;;;;;;20.10;92.10;;;;;;5070042;28;19924;-71
2023/04/23 12:52:37;;;;;;;;;;;20.10;92.30;;;;;;5073517;28;19931;-72
2023/04/23 12:55:03;;;;;;;;;;;20.20;92.60;;;;;;5070038;28;19925;-72
2023/04/23 12:57:29;;;;;;;;;;;20.40;93.60;;;;;;5071452;28;19979;-72
2023/04/23 12:59:55;;;;;;;;;;;20.40;92.60;;;;;;5072423;28;20011;-71
2023/04/23 13:02:21;;;;;;;;;;;20.30;92.40;;;;;;5072774;28;20015;-72
2023/04/23 13:04:46;;;;;;;;;;;20.40;92.20;;;;;;5054450;28;19931;-71
2023/04/23 13:07:12;;;;;;;;;;;20.60;93.00;;;;;;5073930;28;19928;-72
2023/04/23 13:09:38;;;;;;;;;;;20.70;92.30;;;;;;5072322;28;19929;-72
2023/04/23 13:12:03;;;;;;;;;;;20.50;90.70;;;;;;5072059;28;19925;-71
2023/04/23 13:14:30;;;;;;;;;;;20.40;91.60;;;;;;5072985;28;20285;-71
2023/04/23 13:16:57;;;;;;;;;;;20.20;92.80;;;;;;5073882;28;19928;-71
2023/04/23 13:19:23;;;;;;;;;;;20.00;91.40;;;;;;5073413;28;19990;-72
2023/04/23 13:21:49;;;;;;;;;;;19.80;92.60;;;;;;5072467;28;19924;-72
2023/04/23 13:24:15;;;;;;;;;;;19.70;92.30;;;;;;5073381;28;19970;-71
2023/04/23 13:26:40;;;;;;;;;;;19.70;92.90;;;;;;5071748;28;19924;-71
2023/04/23 13:29:06;;;;;;;;;;;19.70;92.20;;;;;;5063803;28;20275;-71
2023/04/23 13:31:31;;;;;;;;;;;19.60;92.10;;;;;;5072304;28;20027;-72
2023/04/23 13:33:57;;;;;;;;;;;19.70;93.00;;;;;;5063093;28;19935;-72
2023/04/23 13:36:23;;;;;;;;;;;19.80;92.70;;;;;;5072965;28;19982;-70
2023/04/23 13:38:49;;;;;;;;;;;20.00;92.60;;;;;;5071525;28;19966;-70
2023/04/23 13:41:14;;;;;;;;;;;20.20;92.50;;;;;;5072865;28;20031;-70
2023/04/23 13:43:40;;;;;;;;;;;20.30;91.60;;;;;;5072139;28;20043;-70
2023/04/23 13:46:06;;;;;;;;;;;20.40;91.90;;;;;;5072400;28;19932;-71
2023/04/23 13:48:32;;;;;;;;;;;20.60;92.40;;;;;;5072173;28;19947;-71
2023/04/23 13:50:58;;;;;;;;;;;20.80;92.00;;;;;;5072241;28;19924;-71
2023/04/23 13:53:24;;;;;;;;;;;21.10;91.40;;;;;;5072190;28;20013;-71
2023/04/23 13:55:50;;;;;;;;;;;21.50;91.40;;;;;;5073252;28;19931;-72
2023/04/23 13:58:15;;;;;;;;;;;21.60;90.20;;;;;;5073599;28;19932;-71
2023/04/23 14:00:41;;;;;;;;;;;21.50;88.90;;;;;;5072258;28;20014;-71
2023/04/23 14:03:07;;;;;;;;;;;21.30;88.80;;;;;;5050950;28;19928;-72
2023/04/23 14:05:33;;;;;;;;;;;21.00;88.90;;;;;;5071216;28;19982;-72
2023/04/23 14:07:59;;;;;;;;;;;20.80;89.40;;;;;;5053522;28;20025;-72
2023/04/23 14:10:24;;;;;;;;;;;20.60;90.30;;;;;;5072336;28;19979;-72
2023/04/23 14:12:50;;;;;;;;;;;20.50;89.30;;;;;;5072278;28;20011;-72
2023/04/23 14:15:16;;;;;;;;;;;20.50;89.90;;;;;;5053188;28;19939;-72
2023/04/23 14:17:43;;;;;;;;;;;20.50;89.30;;;;;;5071847;28;19970;-72